Time;durP1;ratioP1;P1;durP2;ratioP2;P2;SDS_P1;SDS_P2;PMS_P1;PMS_P2;Temp;Humidity;BMP_temperature;BMP_pressure;BME280_temperature;BME280_humidity;BME280_pressure;Samples;Min_cycle;Max_cycle;Signal;HPM_P1;HPM_P2
2021/12/03 00:01:07;;;;;;;2.08;1.60;;;-1.50;97.70;;;;;;2074861;28;20294;-61
2021/12/03 00:02:08;;;;;;;2.53;2.00;;;-1.50;97.60;;;;;;2074719;28;20165;-61
2021/12/03 00:03:09;;;;;;;3.00;2.27;;;-1.40;97.70;;;;;;2073965;28;20193;-60
2021/12/03 00:04:10;;;;;;;1.98;1.73;;;-1.40;97.60;;;;;;2073813;28;20193;-60
2021/12/03 00:05:11;;;;;;;2.63;2.07;;;-1.40;97.50;;;;;;2074221;28;20692;-61
2021/12/03 00:06:13;;;;;;;2.80;2.33;;;-1.40;97.50;;;;;;2074137;28;20181;-61
2021/12/03 00:07:14;;;;;;;3.63;2.30;;;-1.40;97.60;;;;;;2073890;28;20166;-61
2021/12/03 00:08:14;;;;;;;3.73;1.90;;;-1.40;97.60;;;;;;2073874;28;20591;-60
2021/12/03 00:09:15;;;;;;;2.83;2.13;;;-1.40;97.50;;;;;;2074099;28;20208;-61
2021/12/03 00:10:21;;;;;;;3.47;2.37;;;-1.40;97.30;;;;;;2073878;28;20170;-61
2021/12/03 00:11:22;;;;;;;3.28;1.90;;;-1.40;97.50;;;;;;2073997;28;20193;-61
2021/12/03 00:12:23;;;;;;;2.10;1.90;;;-1.40;97.50;;;;;;2073939;28;20235;-61
2021/12/03 00:13:26;;;;;;;2.90;2.10;;;-1.40;97.40;;;;;;2073771;28;20546;-61
2021/12/03 00:14:27;;;;;;;3.80;2.33;;;-1.40;97.30;;;;;;2074052;28;20599;-61
2021/12/03 00:15:28;;;;;;;6.00;2.67;;;-1.40;97.40;;;;;;2073777;28;20193;-61
2021/12/03 00:16:29;;;;;;;3.70;2.70;;;-1.40;97.60;;;;;;2073887;28;20186;-61
2021/12/03 00:17:29;;;;;;;2.73;2.37;;;-1.50;97.70;;;;;;2073787;28;20420;-61
2021/12/03 00:18:31;;;;;;;2.87;2.17;;;-1.50;97.80;;;;;;2073794;28;20233;-61
2021/12/03 00:19:32;;;;;;;2.90;2.22;;;-1.50;97.70;;;;;;2073426;28;20207;-61
2021/12/03 00:20:36;;;;;;;4.03;2.40;;;-1.50;97.70;;;;;;2073546;28;20662;-61
2021/12/03 00:21:38;;;;;;;5.38;2.42;;;-1.50;97.70;;;;;;2073671;28;20209;-60
2021/12/03 00:22:38;;;;;;;2.72;2.17;;;-1.50;97.60;;;;;;2073603;28;20181;-60
2021/12/03 00:23:40;;;;;;;2.97;2.40;;;-1.50;97.50;;;;;;2073372;28;20184;-61
2021/12/03 00:24:41;;;;;;;3.00;2.10;;;-1.50;97.70;;;;;;2073055;28;20651;-62
2021/12/03 00:25:42;;;;;;;4.87;2.40;;;-1.50;97.80;;;;;;2073435;28;20186;-62
2021/12/03 00:26:43;;;;;;;3.63;2.53;;;-1.50;97.70;;;;;;2073503;28;20425;-61
2021/12/03 00:27:44;;;;;;;3.80;2.30;;;-1.50;97.70;;;;;;2072863;28;20192;-61
2021/12/03 00:28:45;;;;;;;3.30;2.35;;;-1.50;97.70;;;;;;2072932;28;20189;-62
2021/12/03 00:29:45;;;;;;;4.23;2.20;;;-1.50;97.70;;;;;;2073094;28;20272;-62
2021/12/03 00:30:47;;;;;;;3.10;2.50;;;-1.50;97.90;;;;;;2073562;28;20724;-63
2021/12/03 00:31:48;;;;;;;4.10;2.70;;;-1.50;97.90;;;;;;2073689;28;20177;-61
2021/12/03 00:32:49;;;;;;;4.80;2.57;;;-1.50;97.90;;;;;;2073677;28;20595;-61
2021/12/03 00:33:50;;;;;;;3.33;2.33;;;-1.50;97.80;;;;;;2073381;28;20692;-61
2021/12/03 00:34:51;;;;;;;5.67;2.30;;;-1.50;97.80;;;;;;2072945;28;20196;-62
2021/12/03 00:35:52;;;;;;;3.27;2.30;;;-1.50;97.90;;;;;;2073078;28;20658;-61
2021/12/03 00:36:55;;;;;;;4.90;2.25;;;-1.50;97.70;;;;;;2073588;28;20276;-62
2021/12/03 00:37:56;;;;;;;4.50;2.33;;;-1.50;97.80;;;;;;2074400;28;20208;-61
2021/12/03 00:38:59;;;;;;;3.22;2.58;;;-1.50;97.80;;;;;;2075557;28;20235;-62
2021/12/03 00:40:00;;;;;;;3.83;2.60;;;-1.50;97.80;;;;;;2074358;28;20185;-61
2021/12/03 00:41:01;;;;;;;2.60;2.20;;;-1.40;98.00;;;;;;2074947;28;20292;-61
2021/12/03 00:42:03;;;;;;;4.50;2.88;;;-1.40;97.90;;;;;;2074827;28;20197;-61
2021/12/03 00:43:06;;;;;;;3.92;2.67;;;-1.40;98.00;;;;;;2073502;28;20189;-62
2021/12/03 00:44:07;;;;;;;4.32;2.72;;;-1.30;98.00;;;;;;2073311;28;20193;-61
2021/12/03 00:45:11;;;;;;;3.33;2.50;;;-1.30;98.10;;;;;;2073487;28;20178;-61
2021/12/03 00:46:16;;;;;;;5.50;2.95;;;-1.30;98.00;;;;;;2073281;28;20181;-61
2021/12/03 00:47:17;;;;;;;3.65;2.55;;;-1.30;98.00;;;;;;2072564;28;20182;-61
2021/12/03 00:48:18;;;;;;;3.63;2.75;;;-1.30;97.80;;;;;;2072754;28;20181;-61
2021/12/03 00:49:19;;;;;;;3.23;2.37;;;-1.30;97.70;;;;;;2073326;28;20213;-62
2021/12/03 00:50:22;;;;;;;3.67;2.57;;;-1.30;97.80;;;;;;2072914;28;20173;-61
2021/12/03 00:51:25;;;;;;;5.18;2.72;;;-1.20;97.80;;;;;;2073458;28;20184;-63
2021/12/03 00:52:26;;;;;;;4.07;2.90;;;-1.20;97.70;;;;;;2072716;28;20177;-60
2021/12/03 00:53:27;;;;;;;2.80;2.47;;;-1.30;97.70;;;;;;2064635;28;20186;-61
2021/12/03 00:54:28;;;;;;;3.67;2.45;;;-1.30;97.80;;;;;;2072713;28;20169;-62
2021/12/03 00:55:33;;;;;;;3.53;2.50;;;-1.30;97.70;;;;;;2073521;28;20197;-62
2021/12/03 00:56:33;;;;;;;4.63;2.50;;;-1.40;98.00;;;;;;2073294;28;20262;-65
2021/12/03 00:57:34;;;;;;;4.00;2.60;;;-1.40;97.60;;;;;;2073318;28;20244;-62
2021/12/03 00:58:37;;;;;;;2.85;2.10;;;-1.40;97.60;;;;;;2072596;28;20193;-62
2021/12/03 00:59:38;;;;;;;4.43;2.60;;;-1.40;97.30;;;;;;2072616;28;20585;-61
2021/12/03 01:00:38;;;;;;;5.10;2.70;;;-1.40;97.40;;;;;;2073294;28;20201;-62
2021/12/03 01:01:39;;;;;;;3.97;2.83;;;-1.50;98.00;;;;;;2073400;28;20196;-62
2021/12/03 01:02:40;;;;;;;3.57;2.60;;;-1.50;97.70;;;;;;2073216;28;20192;-61
2021/12/03 01:03:41;;;;;;;3.70;2.53;;;-1.50;97.80;;;;;;2073356;28;20638;-62
2021/12/03 01:04:42;;;;;;;4.75;2.85;;;-1.50;97.80;;;;;;2073091;28;20209;-62
2021/12/03 01:05:43;;;;;;;4.23;2.50;;;-1.40;98.00;;;;;;2073330;28;20184;-62
2021/12/03 01:06:43;;;;;;;3.38;2.53;;;-1.40;97.90;;;;;;2073339;28;20304;-62
2021/12/03 01:07:44;;;;;;;4.33;2.63;;;-1.40;98.00;;;;;;2073240;28;20654;-61
2021/12/03 01:08:45;;;;;;;3.67;2.80;;;-1.40;98.20;;;;;;2073161;28;20549;-62
2021/12/03 01:09:45;;;;;;;5.57;2.63;;;-1.40;98.30;;;;;;2073056;28;20175;-62
2021/12/03 01:10:46;;;;;;;4.30;3.10;;;-1.40;98.60;;;;;;2073164;28;20207;-62
2021/12/03 01:11:48;;;;;;;3.07;2.60;;;-1.30;98.20;;;;;;2073185;28;20253;-62
2021/12/03 01:12:49;;;;;;;4.00;2.88;;;-1.40;98.30;;;;;;2073260;28;20177;-63
2021/12/03 01:13:51;;;;;;;5.93;2.70;;;-1.40;98.10;;;;;;2073257;28;20186;-63
2021/12/03 01:14:52;;;;;;;4.57;2.85;;;-1.40;98.20;;;;;;2073158;28;20580;-63
2021/12/03 01:15:52;;;;;;;4.50;2.72;;;-1.40;98.40;;;;;;2073207;28;20205;-63
2021/12/03 01:16:53;;;;;;;3.13;2.37;;;-1.40;98.40;;;;;;2073109;28;20603;-62
2021/12/03 01:17:56;;;;;;;4.43;2.60;;;-1.40;98.00;;;;;;2073206;28;20222;-62
2021/12/03 01:18:58;;;;;;;3.30;2.70;;;-1.40;98.10;;;;;;2072871;28;20185;-62
2021/12/03 01:20:04;;;;;;;4.10;2.97;;;-1.40;98.40;;;;;;2072744;28;20566;-62
2021/12/03 01:21:05;;;;;;;3.03;2.60;;;-1.40;98.30;;;;;;2073307;28;20209;-61
2021/12/03 01:22:06;;;;;;;5.00;2.72;;;-1.40;97.90;;;;;;2072417;28;20181;-62
2021/12/03 01:23:10;;;;;;;4.90;2.67;;;-1.40;97.80;;;;;;2072781;28;20563;-61
2021/12/03 01:24:11;;;;;;;3.60;2.65;;;-1.40;97.50;;;;;;2072964;28;20423;-62
2021/12/03 01:25:14;;;;;;;3.83;2.80;;;-1.40;97.40;;;;;;2073169;28;20197;-63
2021/12/03 01:26:15;;;;;;;3.25;2.30;;;-1.50;97.00;;;;;;2073065;28;20209;-62
2021/12/03 01:27:16;;;;;;;3.30;2.33;;;-1.50;96.30;;;;;;2073086;28;20177;-62
2021/12/03 01:28:17;;;;;;;5.87;2.50;;;-1.50;96.30;;;;;;2073214;28;20253;-62
2021/12/03 01:29:17;;;;;;;3.03;2.60;;;-1.60;96.00;;;;;;2073299;28;20191;-62
2021/12/03 01:30:22;;;;;;;4.10;2.67;;;-1.60;96.10;;;;;;2072867;28;20630;-62
2021/12/03 01:31:22;;;;;;;3.83;2.45;;;-1.60;96.30;;;;;;2073279;28;20705;-61
2021/12/03 01:32:23;;;;;;;3.87;2.50;;;-1.60;96.30;;;;;;2073025;28;20174;-62
2021/12/03 01:33:24;;;;;;;3.23;2.50;;;-1.60;95.80;;;;;;2073133;28;20694;-64
2021/12/03 01:34:25;;;;;;;3.90;2.95;;;-1.70;95.90;;;;;;2073082;28;20205;-61
2021/12/03 01:35:27;;;;;;;3.95;2.80;;;-1.70;96.10;;;;;;2073081;28;20272;-62
2021/12/03 01:36:28;;;;;;;3.05;2.53;;;-1.70;96.20;;;;;;2073564;28;20178;-63
2021/12/03 01:37:29;;;;;;;2.87;2.50;;;-1.70;96.40;;;;;;2074800;28;20191;-62
2021/12/03 01:38:30;;;;;;;3.80;2.80;;;-1.70;96.60;;;;;;2074484;28;20200;-63
2021/12/03 01:39:31;;;;;;;6.90;2.90;;;-1.70;97.00;;;;;;2074617;28;20235;-61
2021/12/03 01:40:34;;;;;;;6.03;2.70;;;-1.70;97.10;;;;;;2074401;28;20189;-63
2021/12/03 01:41:35;;;;;;;4.10;2.63;;;-1.70;96.70;;;;;;2074723;28;20188;-62
2021/12/03 01:42:37;;;;;;;3.60;2.70;;;-1.70;96.80;;;;;;2074535;28;20658;-62
2021/12/03 01:43:43;;;;;;;4.60;2.70;;;-1.70;97.10;;;;;;2074494;28;20186;-63
2021/12/03 01:44:44;;;;;;;3.72;2.60;;;-1.70;97.20;;;;;;2073852;28;20225;-63
2021/12/03 01:45:45;;;;;;;4.00;3.00;;;-1.70;96.90;;;;;;2073941;28;20670;-63
2021/12/03 01:46:45;;;;;;;3.70;2.70;;;-1.70;96.90;;;;;;2074556;28;20211;-63
2021/12/03 01:47:49;;;;;;;4.07;3.10;;;-1.70;96.70;;;;;;2074639;28;20677;-63
2021/12/03 01:48:50;;;;;;;5.75;2.90;;;-1.70;96.90;;;;;;2074349;28;20535;-63
2021/12/03 01:49:51;;;;;;;6.50;3.17;;;-1.80;97.20;;;;;;2074336;28;20256;-63
2021/12/03 01:50:53;;;;;;;4.53;2.75;;;-1.80;96.90;;;;;;2074477;28;20212;-63
2021/12/03 01:51:54;;;;;;;6.25;3.05;;;-1.80;96.80;;;;;;2074571;28;20243;-63
2021/12/03 01:52:55;;;;;;;8.37;2.47;;;-1.70;97.00;;;;;;2074519;28;20178;-63
2021/12/03 01:53:56;;;;;;;3.97;2.70;;;-1.70;97.00;;;;;;2074469;28;20184;-63
2021/12/03 01:54:59;;;;;;;3.58;2.63;;;-1.70;96.80;;;;;;2074504;28;20565;-63
2021/12/03 01:56:06;;;;;;;5.95;2.85;;;-1.80;97.00;;;;;;2074675;28;20181;-63
2021/12/03 01:57:07;;;;;;;3.75;2.80;;;-1.80;97.10;;;;;;2074548;28;20166;-62
2021/12/03 01:58:08;;;;;;;3.67;2.50;;;-1.80;96.70;;;;;;2074715;28;20733;-62
2021/12/03 01:59:10;;;;;;;7.63;2.90;;;-1.80;96.50;;;;;;2074187;28;20221;-63
2021/12/03 02:00:19;;;;;;;6.35;2.88;;;-1.80;96.60;;;;;;2073435;28;20700;-63
2021/12/03 02:01:25;;;;;;;3.03;2.45;;;-1.90;96.80;;;;;;2073733;28;20248;-63
2021/12/03 02:02:27;;;;;;;5.50;2.45;;;-1.90;96.70;;;;;;2074412;28;20214;-63
2021/12/03 02:03:32;;;;;;;4.00;2.95;;;-1.90;96.80;;;;;;2074278;28;20188;-63
2021/12/03 02:04:33;;;;;;;4.13;2.17;;;-1.90;96.90;;;;;;2074137;28;20744;-63
2021/12/03 02:05:36;;;;;;;4.20;2.90;;;-1.90;97.60;;;;;;2074241;28;20189;-63
2021/12/03 02:06:37;;;;;;;3.75;2.55;;;-1.90;97.20;;;;;;2074257;28;20178;-63
2021/12/03 02:07:38;;;;;;;4.90;2.90;;;-1.90;97.10;;;;;;2074199;28;20287;-63
2021/12/03 02:08:41;;;;;;;4.70;2.97;;;-1.90;97.10;;;;;;2074323;28;20615;-63
2021/12/03 02:09:41;;;;;;;5.40;3.17;;;-1.90;97.10;;;;;;2073954;28;20197;-61
2021/12/03 02:10:42;;;;;;;4.57;3.17;;;-1.90;97.10;;;;;;2074291;28;20197;-63
2021/12/03 02:11:43;;;;;;;5.15;3.22;;;-1.90;97.10;;;;;;2074084;28;20185;-63
2021/12/03 02:12:44;;;;;;;4.27;2.93;;;-1.90;97.10;;;;;;2074078;28;20185;-63
2021/12/03 02:13:47;;;;;;;5.13;3.10;;;-2.00;97.10;;;;;;2074031;28;20248;-63
2021/12/03 02:14:47;;;;;;;4.13;3.33;;;-2.00;97.10;;;;;;2074325;28;20211;-61
2021/12/03 02:15:49;;;;;;;5.27;3.37;;;-2.00;97.10;;;;;;2074166;28;20193;-64
2021/12/03 02:16:49;;;;;;;5.70;3.08;;;-2.00;96.90;;;;;;2074178;28;20650;-63
2021/12/03 02:17:50;;;;;;;4.57;2.90;;;-2.10;97.10;;;;;;2074101;28;20335;-63
2021/12/03 02:18:52;;;;;;;4.00;2.70;;;-2.10;97.50;;;;;;2074139;28;20181;-63
2021/12/03 02:19:52;;;;;;;4.30;3.38;;;-2.10;97.50;;;;;;2073791;28;20420;-63
2021/12/03 02:20:57;;;;;;;4.63;3.00;;;-2.10;97.50;;;;;;2073418;28;20216;-63
2021/12/03 02:21:58;;;;;;;4.22;2.65;;;-2.10;97.30;;;;;;2073512;28;20184;-63
2021/12/03 02:22:59;;;;;;;6.27;3.10;;;-2.10;97.20;;;;;;2074149;28;20188;-63
2021/12/03 02:24:00;;;;;;;4.30;2.90;;;-2.00;97.30;;;;;;2074044;28;20188;-63
2021/12/03 02:25:01;;;;;;;5.03;3.13;;;-2.00;97.40;;;;;;2074130;28;20189;-63
2021/12/03 02:26:02;;;;;;;5.57;3.47;;;-2.00;97.40;;;;;;2073999;28;20178;-63
2021/12/03 02:27:04;;;;;;;3.70;2.95;;;-2.00;97.40;;;;;;2074072;28;20197;-62
2021/12/03 02:28:04;;;;;;;4.57;2.67;;;-2.00;97.50;;;;;;2074249;28;20243;-63
2021/12/03 02:29:05;;;;;;;4.13;2.97;;;-2.00;97.60;;;;;;2074229;28;20264;-63
2021/12/03 02:30:08;;;;;;;3.87;2.83;;;-2.00;97.50;;;;;;2074105;28;20202;-62
2021/12/03 02:31:11;;;;;;;4.43;3.17;;;-2.00;97.70;;;;;;2074486;28;20682;-63
2021/12/03 02:32:11;;;;;;;5.60;3.47;;;-2.00;97.90;;;;;;2074183;28;20249;-63
2021/12/03 02:33:13;;;;;;;5.30;3.50;;;-2.00;98.10;;;;;;2073785;28;20196;-63
2021/12/03 02:34:14;;;;;;;5.03;3.22;;;-2.00;98.10;;;;;;2074177;28;20181;-63
2021/12/03 02:35:15;;;;;;;4.47;3.30;;;-2.00;97.90;;;;;;2074450;28;20255;-63
2021/12/03 02:36:17;;;;;;;5.00;3.08;;;-2.00;97.90;;;;;;2074342;28;20209;-62
2021/12/03 02:37:18;;;;;;;4.15;3.05;;;-1.90;97.60;;;;;;2074100;28;20305;-62
2021/12/03 02:38:22;;;;;;;4.87;3.07;;;-2.00;97.40;;;;;;2074440;28;20177;-62
2021/12/03 02:39:23;;;;;;;4.97;3.40;;;-2.00;97.60;;;;;;2074101;28;20316;-62
2021/12/03 02:40:24;;;;;;;5.73;2.93;;;-2.00;97.50;;;;;;2074018;28;20212;-62
2021/12/03 02:41:25;;;;;;;5.05;3.20;;;-1.90;97.60;;;;;;2074171;28;20184;-62
2021/12/03 02:42:26;;;;;;;6.47;3.33;;;-1.90;97.60;;;;;;2074199;28;20191;-62
2021/12/03 02:43:27;;;;;;;5.60;2.90;;;-1.80;97.60;;;;;;2074210;28;20177;-62
2021/12/03 02:44:28;;;;;;;5.55;2.85;;;-1.80;97.10;;;;;;2073810;28;20211;-62
2021/12/03 02:45:29;;;;;;;5.03;3.40;;;-1.90;96.90;;;;;;2074142;28;20178;-62
2021/12/03 02:46:30;;;;;;;4.33;3.00;;;-1.90;97.10;;;;;;2074117;28;20175;-63
2021/12/03 02:47:30;;;;;;;4.37;2.90;;;-1.90;97.30;;;;;;2073872;28;20550;-62
2021/12/03 02:48:32;;;;;;;4.20;2.93;;;-1.80;97.40;;;;;;2081793;28;20638;-63
2021/12/03 02:49:41;;;;;;;4.95;3.10;;;-1.80;97.30;;;;;;2081518;28;20193;-62
2021/12/03 02:50:42;;;;;;;6.15;3.28;;;-1.80;97.40;;;;;;2074045;28;20206;-64
2021/12/03 02:51:43;;;;;;;7.40;3.33;;;-1.70;97.40;;;;;;2081377;28;20230;-64
2021/12/03 02:52:48;;;;;;;4.87;3.13;;;-1.70;97.40;;;;;;2081664;28;20185;-64
2021/12/03 02:53:48;;;;;;;4.30;3.08;;;-1.70;97.10;;;;;;2074049;28;20604;-63
2021/12/03 02:54:49;;;;;;;4.57;2.63;;;-1.70;96.60;;;;;;2074070;28;20186;-63
2021/12/03 02:55:51;;;;;;;4.33;2.80;;;-1.70;96.50;;;;;;2073365;28;20181;-63
2021/12/03 02:56:52;;;;;;;4.32;2.92;;;-1.70;96.60;;;;;;2065471;28;20182;-62
2021/12/03 02:57:53;;;;;;;4.63;3.30;;;-1.60;96.60;;;;;;2073269;28;20255;-62
2021/12/03 02:58:54;;;;;;;4.50;2.83;;;-1.70;96.60;;;;;;2073928;28;20181;-62
2021/12/03 02:59:54;;;;;;;5.27;3.60;;;-1.60;96.70;;;;;;2073771;28;20190;-62
2021/12/03 03:00:56;;;;;;;4.47;3.07;;;-1.60;96.80;;;;;;2073376;28;20205;-62
2021/12/03 03:01:58;;;;;;;4.65;3.17;;;-1.60;96.70;;;;;;2073340;28;20205;-62
2021/12/03 03:02:59;;;;;;;5.82;3.28;;;-1.60;96.90;;;;;;2073929;28;20211;-62
2021/12/03 03:04:00;;;;;;;4.80;3.05;;;-1.60;96.80;;;;;;2073858;28;20185;-62
2021/12/03 03:05:00;;;;;;;5.20;3.17;;;-1.60;96.30;;;;;;2074046;28;20186;-62
2021/12/03 03:06:04;;;;;;;3.87;3.03;;;-1.60;96.10;;;;;;2073876;28;20187;-62
2021/12/03 03:07:05;;;;;;;6.60;3.45;;;-1.60;96.30;;;;;;2074006;28;20642;-62
2021/12/03 03:08:06;;;;;;;8.15;3.38;;;-1.60;96.30;;;;;;2074008;28;20270;-62
2021/12/03 03:09:10;;;;;;;5.13;2.97;;;-1.60;96.70;;;;;;2073809;28;20200;-62
2021/12/03 03:10:15;;;;;;;4.28;2.83;;;-1.60;96.70;;;;;;2073639;28;20260;-61
2021/12/03 03:11:17;;;;;;;5.35;3.17;;;-1.60;96.20;;;;;;2074055;28;20268;-61
2021/12/03 03:12:17;;;;;;;5.75;2.80;;;-1.60;96.00;;;;;;2073886;28;20183;-61
2021/12/03 03:13:18;;;;;;;5.23;2.73;;;-1.60;96.10;;;;;;2073954;28;20185;-62
2021/12/03 03:14:19;;;;;;;4.93;2.80;;;-1.70;96.20;;;;;;2073823;28;20178;-61
2021/12/03 03:15:21;;;;;;;5.23;2.90;;;-1.70;96.40;;;;;;2074055;28;20185;-62
2021/12/03 03:16:22;;;;;;;4.22;2.95;;;-1.70;96.10;;;;;;2073964;28;20170;-62
2021/12/03 03:17:25;;;;;;;6.43;3.57;;;-1.70;96.30;;;;;;2073267;28;20264;-60
2021/12/03 03:18:28;;;;;;;3.92;3.08;;;-1.70;96.50;;;;;;2073394;28;20182;-62
2021/12/03 03:19:29;;;;;;;4.55;2.95;;;-1.70;96.60;;;;;;2073769;28;20177;-62
2021/12/03 03:20:29;;;;;;;8.00;2.97;;;-1.70;96.70;;;;;;2073571;28;20585;-62
2021/12/03 03:21:30;;;;;;;5.20;3.10;;;-1.70;96.60;;;;;;2074091;28;20182;-62
2021/12/03 03:22:32;;;;;;;4.83;3.20;;;-1.70;96.50;;;;;;2073855;28;20232;-62
2021/12/03 03:23:35;;;;;;;5.85;3.78;;;-1.70;96.60;;;;;;2073310;28;20518;-62
2021/12/03 03:24:37;;;;;;;5.50;3.22;;;-1.70;96.60;;;;;;2073187;28;20217;-62
2021/12/03 03:25:40;;;;;;;4.43;3.30;;;-1.60;96.60;;;;;;2073862;28;20170;-62
2021/12/03 03:26:44;;;;;;;5.60;3.70;;;-1.60;96.50;;;;;;2073653;28;20613;-61
2021/12/03 03:27:46;;;;;;;4.78;3.28;;;-1.60;96.30;;;;;;2073053;28;20186;-62
2021/12/03 03:28:48;;;;;;;5.05;3.58;;;-1.60;96.20;;;;;;2072781;28;20196;-62
2021/12/03 03:29:51;;;;;;;5.30;3.55;;;-1.60;96.20;;;;;;2073728;28;20174;-62
2021/12/03 03:30:55;;;;;;;5.22;3.20;;;-1.60;96.10;;;;;;2073638;28;20201;-61
2021/12/03 03:31:56;;;;;;;4.20;3.25;;;-1.60;96.20;;;;;;2073127;28;20182;-61
2021/12/03 03:32:57;;;;;;;3.70;3.40;;;-1.60;96.60;;;;;;2065454;28;20202;-62
2021/12/03 03:34:04;;;;;;;4.53;3.58;;;-1.60;96.70;;;;;;2073236;28;20661;-62
2021/12/03 03:35:06;;;;;;;6.68;3.65;;;-1.60;96.80;;;;;;2072045;28;20189;-62
2021/12/03 03:36:07;;;;;;;4.60;3.63;;;-1.70;96.60;;;;;;2073508;28;20234;-62
2021/12/03 03:37:09;;;;;;;5.90;3.50;;;-1.60;96.50;;;;;;2072835;28;20236;-62
2021/12/03 03:38:10;;;;;;;7.32;3.75;;;-1.60;96.50;;;;;;2072945;28;20199;-62
2021/12/03 03:39:14;;;;;;;5.65;3.83;;;-1.60;96.20;;;;;;2073048;28;20212;-62
2021/12/03 03:40:15;;;;;;;5.00;3.80;;;-1.60;96.20;;;;;;2065160;28;20181;-62
2021/12/03 03:41:16;;;;;;;4.80;3.58;;;-1.60;96.20;;;;;;2072977;28;20190;-62
2021/12/03 03:42:17;;;;;;;6.85;4.35;;;-1.60;96.30;;;;;;2073093;28;20181;-62
2021/12/03 03:43:19;;;;;;;6.07;3.67;;;-1.50;96.40;;;;;;2072974;28;20294;-62
2021/12/03 03:44:20;;;;;;;6.95;4.05;;;-1.50;96.30;;;;;;2073626;28;20201;-63
2021/12/03 03:45:24;;;;;;;6.50;3.60;;;-1.50;96.40;;;;;;2073555;28;20184;-62
2021/12/03 03:46:25;;;;;;;4.80;3.45;;;-1.50;96.90;;;;;;2073375;28;20261;-62
2021/12/03 03:47:26;;;;;;;6.28;3.70;;;-1.50;97.10;;;;;;2064660;28;20603;-61
2021/12/03 03:48:27;;;;;;;5.80;3.80;;;-1.50;97.30;;;;;;2064905;28;20217;-62
2021/12/03 03:49:29;;;;;;;5.95;4.03;;;-1.50;96.90;;;;;;2073515;28;20264;-62
2021/12/03 03:50:31;;;;;;;6.07;3.55;;;-1.60;96.60;;;;;;2073372;28;20218;-61
2021/12/03 03:51:33;;;;;;;5.88;3.45;;;-1.60;96.30;;;;;;2073511;28;20201;-63
2021/12/03 03:52:36;;;;;;;5.32;3.92;;;-1.60;96.30;;;;;;2073599;28;20192;-62
2021/12/03 03:53:38;;;;;;;5.93;3.80;;;-1.60;96.40;;;;;;2073019;28;20170;-62
2021/12/03 03:54:39;;;;;;;7.38;4.40;;;-1.60;96.50;;;;;;2072878;28;20715;-62
2021/12/03 03:55:40;;;;;;;5.60;3.70;;;-1.60;96.40;;;;;;2072867;28;20189;-62
2021/12/03 03:56:42;;;;;;;4.77;3.40;;;-1.60;96.40;;;;;;2072854;28;20220;-61
2021/12/03 03:57:44;;;;;;;6.50;3.75;;;-1.50;96.40;;;;;;2073477;28;20228;-62
2021/12/03 03:58:45;;;;;;;7.00;3.30;;;-1.50;96.70;;;;;;2073369;28;20565;-63
2021/12/03 03:59:45;;;;;;;3.83;2.83;;;-1.50;96.50;;;;;;2072836;28;20186;-63
2021/12/03 04:00:47;;;;;;;4.20;3.10;;;-1.50;96.30;;;;;;2073342;28;20213;-63
2021/12/03 04:01:51;;;;;;;6.35;3.65;;;-1.50;96.10;;;;;;2073468;28;20669;-63
2021/12/03 04:02:51;;;;;;;6.47;3.60;;;-1.50;96.20;;;;;;2073537;28;20272;-62
2021/12/03 04:03:53;;;;;;;4.20;2.97;;;-1.50;96.30;;;;;;2073396;28;20182;-62
2021/12/03 04:04:53;;;;;;;4.45;3.08;;;-1.50;96.10;;;;;;2073528;28;20246;-62
2021/12/03 04:05:54;;;;;;;4.30;3.30;;;-1.50;96.00;;;;;;2073485;28;20184;-62
2021/12/03 04:06:55;;;;;;;6.00;3.50;;;-1.50;95.90;;;;;;2073532;28;20572;-59
2021/12/03 04:07:56;;;;;;;5.00;3.10;;;-1.50;95.90;;;;;;2073260;28;20256;-62
2021/12/03 04:08:56;;;;;;;5.10;3.10;;;-1.50;95.90;;;;;;2073227;28;20208;-62
2021/12/03 04:09:57;;;;;;;3.90;3.03;;;-1.40;95.90;;;;;;2073189;28;20178;-63
2021/12/03 04:11:00;;;;;;;4.70;3.33;;;-1.40;95.80;;;;;;2073365;28;20688;-62
2021/12/03 04:12:01;;;;;;;4.90;3.13;;;-1.40;95.60;;;;;;2073448;28;20549;-62
2021/12/03 04:13:02;;;;;;;7.38;4.03;;;-1.40;95.50;;;;;;2073380;28;20190;-62
2021/12/03 04:14:03;;;;;;;4.83;3.40;;;-1.40;95.60;;;;;;2073531;28;20673;-62
2021/12/03 04:15:08;;;;;;;4.55;3.30;;;-1.40;95.80;;;;;;2073425;28;20420;-62
2021/12/03 04:16:09;;;;;;;4.00;3.05;;;-1.50;95.10;;;;;;2073570;28;20269;-63
2021/12/03 04:17:10;;;;;;;3.78;3.00;;;-1.50;94.90;;;;;;2073357;28;20193;-62
2021/12/03 04:18:11;;;;;;;7.97;3.70;;;-1.50;94.80;;;;;;2073317;28;20178;-62
2021/12/03 04:19:11;;;;;;;5.17;3.23;;;-1.50;95.00;;;;;;2073285;28;20173;-62
2021/12/03 04:20:15;;;;;;;4.40;3.37;;;-1.50;95.20;;;;;;2073064;28;20252;-63
2021/12/03 04:21:16;;;;;;;6.35;3.22;;;-1.50;95.50;;;;;;2073460;28;20172;-62
2021/12/03 04:22:23;;;;;;;3.45;2.70;;;-1.50;95.80;;;;;;2073249;28;20190;-62
2021/12/03 04:23:24;;;;;;;4.60;3.28;;;-1.50;95.90;;;;;;2073336;28;20173;-62
2021/12/03 04:24:25;;;;;;;6.75;3.55;;;-1.50;96.00;;;;;;2072687;28;20205;-62
2021/12/03 04:25:25;;;;;;;5.75;3.30;;;-1.50;96.10;;;;;;2072631;28;20188;-62
2021/12/03 04:26:26;;;;;;;5.93;3.40;;;-1.50;96.20;;;;;;2073269;28;20185;-62
2021/12/03 04:27:27;;;;;;;5.20;3.57;;;-1.50;96.30;;;;;;2073258;28;20206;-62
2021/12/03 04:28:28;;;;;;;5.85;3.38;;;-1.50;96.30;;;;;;2073035;28;20260;-62
2021/12/03 04:29:29;;;;;;;5.23;3.30;;;-1.40;96.30;;;;;;2073041;28;20178;-63
2021/12/03 04:30:30;;;;;;;7.10;3.47;;;-1.50;96.20;;;;;;2073250;28;20726;-62
2021/12/03 04:31:31;;;;;;;7.63;3.35;;;-1.50;96.20;;;;;;2072758;28;20720;-62
2021/12/03 04:32:32;;;;;;;3.37;2.83;;;-1.40;96.10;;;;;;2072811;28;20181;-61
2021/12/03 04:33:33;;;;;;;5.07;3.80;;;-1.50;95.90;;;;;;2073226;28;20189;-62
2021/12/03 04:34:34;;;;;;;5.03;3.13;;;-1.50;95.90;;;;;;2073063;28;20608;-62
2021/12/03 04:35:36;;;;;;;4.10;3.20;;;-1.50;95.60;;;;;;2073076;28;20269;-63
2021/12/03 04:36:36;;;;;;;4.65;3.08;;;-1.50;95.60;;;;;;2073072;28;20570;-62
2021/12/03 04:37:38;;;;;;;4.77;3.23;;;-1.50;95.70;;;;;;2073138;28;20217;-63
2021/12/03 04:38:38;;;;;;;5.22;2.95;;;-1.60;95.60;;;;;;2073327;28;20191;-62
2021/12/03 04:39:39;;;;;;;4.10;2.83;;;-1.60;94.80;;;;;;2072684;28;20789;-62
2021/12/03 04:40:42;;;;;;;4.20;3.15;;;-1.60;94.90;;;;;;2072981;28;20496;-63
2021/12/03 04:41:43;;;;;;;5.80;3.03;;;-1.60;95.20;;;;;;2073067;28;20197;-63
2021/12/03 04:42:44;;;;;;;5.07;3.50;;;-1.60;95.30;;;;;;2073053;28;20177;-62
2021/12/03 04:43:45;;;;;;;5.43;3.03;;;-1.60;95.50;;;;;;2072970;28;20183;-62
2021/12/03 04:44:46;;;;;;;5.60;3.20;;;-1.60;95.60;;;;;;2072962;28;20284;-62
2021/12/03 04:45:47;;;;;;;3.80;3.03;;;-1.60;96.00;;;;;;2072928;28;20902;-62
2021/12/03 04:46:48;;;;;;;6.10;3.50;;;-1.60;95.30;;;;;;2073097;28;20186;-62
2021/12/03 04:47:51;;;;;;;4.10;2.70;;;-1.70;95.40;;;;;;2072451;28;20188;-62
2021/12/03 04:48:52;;;;;;;3.65;2.97;;;-1.70;95.40;;;;;;2073117;28;20351;-62
2021/12/03 04:49:52;;;;;;;5.47;3.50;;;-1.70;95.50;;;;;;2072579;28;20188;-62
2021/12/03 04:50:53;;;;;;;5.73;3.50;;;-1.70;95.50;;;;;;2072266;28;20201;-62
2021/12/03 04:51:55;;;;;;;5.53;3.20;;;-1.70;95.70;;;;;;2072316;28;20188;-61
2021/12/03 04:52:57;;;;;;;6.50;3.28;;;-1.70;95.90;;;;;;2072915;28;20421;-62
2021/12/03 04:53:57;;;;;;;8.75;3.75;;;-1.70;95.60;;;;;;2073020;28;20186;-62
2021/12/03 04:54:58;;;;;;;4.80;3.60;;;-1.60;95.60;;;;;;2073022;28;20535;-62
2021/12/03 04:55:59;;;;;;;4.57;3.00;;;-1.70;95.70;;;;;;2072924;28;20186;-63
2021/12/03 04:57:00;;;;;;;4.20;2.97;;;-1.70;95.80;;;;;;2072978;28;20182;-63
2021/12/03 04:58:00;;;;;;;5.17;3.20;;;-1.70;95.60;;;;;;2072977;28;20185;-62
2021/12/03 04:59:02;;;;;;;5.23;3.37;;;-1.70;95.60;;;;;;2072983;28;20189;-63
2021/12/03 05:00:12;;;;;;;4.28;3.30;;;-1.60;95.60;;;;;;2072684;28;20269;-63
2021/12/03 05:01:13;;;;;;;6.13;3.42;;;-1.60;95.80;;;;;;2072954;28;20247;-62
2021/12/03 05:02:13;;;;;;;5.53;3.50;;;-1.70;95.60;;;;;;2072924;28;20630;-62
2021/12/03 05:03:15;;;;;;;4.27;2.67;;;-1.60;95.60;;;;;;2072934;28;20185;-62
2021/12/03 05:04:15;;;;;;;5.68;3.00;;;-1.70;95.50;;;;;;2072209;28;20177;-62
2021/12/03 05:05:17;;;;;;;4.30;3.10;;;-1.70;95.30;;;;;;2072307;28;20685;-61
2021/12/03 05:06:28;;;;;;;4.82;3.30;;;-1.70;95.20;;;;;;2072791;28;20192;-62
2021/12/03 05:08:39;;;;;;;2.83;2.53;;;-1.80;95.60;;;;;;2072933;28;20273;-62
2021/12/03 05:09:39;;;;;;;5.67;3.33;;;-1.80;95.70;;;;;;2072654;28;20612;-62
2021/12/03 05:10:43;;;;;;;4.80;3.13;;;-1.80;95.70;;;;;;2072835;28;20341;-62
2021/12/03 05:11:43;;;;;;;4.68;2.88;;;-1.80;95.60;;;;;;2073774;28;20173;-62
2021/12/03 05:12:44;;;;;;;6.20;3.10;;;-1.70;95.40;;;;;;2074469;28;20602;-62
2021/12/03 05:13:45;;;;;;;7.07;3.10;;;-1.70;95.40;;;;;;2074573;28;20205;-62
2021/12/03 05:14:46;;;;;;;4.00;2.73;;;-1.70;95.40;;;;;;2074619;28;20569;-62
2021/12/03 05:15:47;;;;;;;5.23;3.43;;;-1.70;95.30;;;;;;2074625;28;20188;-62
2021/12/03 05:16:48;;;;;;;5.78;2.92;;;-1.70;95.30;;;;;;2074520;28;20722;-62
2021/12/03 05:17:49;;;;;;;4.65;3.10;;;-1.70;95.30;;;;;;2074554;28;20185;-62
2021/12/03 05:18:50;;;;;;;5.83;3.03;;;-1.60;95.30;;;;;;2074543;28;20236;-63
2021/12/03 05:19:50;;;;;;;4.20;2.97;;;-1.60;95.30;;;;;;2074276;28;20178;-62
2021/12/03 05:20:54;;;;;;;4.37;3.00;;;-1.60;95.40;;;;;;2074520;28;20671;-62
2021/12/03 05:21:55;;;;;;;7.85;3.38;;;-1.60;95.70;;;;;;2082057;28;20184;-62
2021/12/03 05:22:57;;;;;;;6.20;3.40;;;-1.50;95.60;;;;;;2081961;28;20192;-62